createdAt,value
2019-02-27T00:00:32.487Z,6.75
2019-02-27T00:03:05.120Z,6.28
2019-02-27T00:05:41.411Z,9.13
2019-02-27T00:08:11.372Z,6.28
2019-02-27T00:10:43.607Z,8.43
2019-02-27T00:13:15.854Z,4.78
2019-02-27T00:15:48.115Z,5.05
2019-02-27T00:18:23.807Z,7.37
2019-02-27T00:20:54.323Z,5.08
2019-02-27T00:23:26.684Z,5.60
2019-02-27T00:25:58.929Z,8.95
2019-02-27T00:28:31.174Z,5.17
2019-02-27T00:31:03.409Z,3.92
2019-02-27T00:33:35.652Z,5.55
2019-02-27T00:36:12.025Z,3.90
2019-02-27T00:38:41.964Z,4.12
2019-02-27T00:41:14.239Z,7.40
2019-02-27T00:43:46.503Z,6.85
2019-02-27T00:46:18.739Z,6.45
2019-02-27T00:48:50.987Z,6.85
2019-02-27T00:51:23.224Z,11.60
2019-02-27T00:53:55.942Z,4.58
2019-02-27T00:56:29.432Z,5.20
2019-02-27T00:59:01.710Z,3.95
2019-02-27T01:01:33.939Z,6.33
2019-02-27T01:04:06.192Z,6.15
2019-02-27T01:06:38.415Z,4.90
2019-02-27T01:09:10.745Z,6.60
2019-02-27T01:11:42.974Z,5.85
2019-02-27T01:14:15.244Z,5.25
2019-02-27T01:16:47.671Z,7.00
2019-02-27T01:19:21.462Z,5.00
2019-02-27T01:21:53.695Z,6.97
2019-02-27T01:24:25.959Z,11.68
2019-02-27T01:26:58.205Z,8.63
2019-02-27T01:29:31.383Z,6.53
2019-02-27T01:32:03.608Z,5.95
2019-02-27T01:34:36.568Z,5.67
2019-02-27T01:37:08.798Z,6.08
2019-02-27T01:39:41.865Z,7.78
2019-02-27T01:42:15.014Z,7.75
2019-02-27T01:44:47.304Z,6.67
2019-02-27T01:47:19.605Z,6.00
2019-02-27T01:49:51.869Z,10.70
2019-02-27T01:52:24.116Z,8.63
2019-02-27T01:54:56.458Z,5.03
2019-02-27T01:57:29.587Z,5.92
2019-02-27T02:00:01.844Z,6.87
2019-02-27T02:02:34.932Z,8.25
2019-02-27T02:05:08.137Z,9.35
2019-02-27T02:07:40.824Z,7.60
2019-02-27T02:10:13.083Z,11.18
2019-02-27T02:12:47.095Z,8.43
2019-02-27T02:15:20.910Z,7.65
2019-02-27T02:18:03.755Z,5.83
2019-02-27T02:20:43.976Z,6.87
2019-02-27T02:23:20.413Z,10.98
2019-02-27T02:26:10.469Z,7.85
2019-02-27T02:28:52.976Z,8.40
2019-02-27T02:31:43.043Z,8.95
2019-02-27T02:34:28.944Z,9.33
2019-02-27T02:37:17.525Z,11.80
2019-02-27T02:39:54.542Z,9.55
2019-02-27T02:42:26.822Z,8.68
2019-02-27T02:45:12.876Z,7.15
2019-02-27T02:47:46.712Z,14.00
2019-02-27T02:50:20.493Z,5.80
2019-02-27T02:53:12.136Z,9.35
2019-02-27T02:55:55.007Z,7.37
2019-02-27T02:58:31.700Z,10.15
2019-02-27T03:01:05.503Z,8.05
2019-02-27T03:03:47.978Z,7.78
2019-02-27T03:06:35.011Z,8.43
2019-02-27T03:09:09.407Z,9.18
2019-02-27T03:11:43.216Z,6.50
2019-02-27T03:14:31.774Z,8.18
2019-02-27T03:17:18.059Z,6.80
2019-02-27T03:19:55.636Z,7.05
2019-02-27T03:22:40.389Z,6.78
2019-02-27T03:25:10.743Z,8.28
2019-02-27T03:27:47.592Z,10.07
2019-02-27T03:30:33.704Z,12.78
2019-02-27T03:33:08.431Z,7.15
2019-02-27T03:35:48.200Z,8.98
2019-02-27T03:38:27.740Z,14.15
2019-02-27T03:41:22.541Z,6.42
2019-02-27T03:43:51.963Z,8.15
2019-02-27T03:46:28.432Z,8.15
2019-02-27T03:49:20.390Z,4.35
2019-02-27T03:51:59.616Z,7.55
2019-02-27T03:54:35.384Z,8.15
2019-02-27T03:57:16.049Z,7.42
2019-02-27T03:59:53.944Z,6.25
2019-02-27T04:02:30.392Z,5.37
2019-02-27T04:05:15.894Z,7.67
2019-02-27T04:07:55.491Z,5.75
2019-02-27T04:10:30.907Z,12.82
2019-02-27T04:13:01.722Z,6.42
2019-02-27T04:15:34.043Z,6.40
2019-02-27T04:18:05.737Z,4.75
2019-02-27T04:20:38.009Z,7.65
2019-02-27T04:23:12.479Z,10.58
2019-02-27T04:25:44.250Z,7.30
2019-02-27T04:28:16.466Z,6.30
2019-02-27T04:30:51.276Z,6.33
2019-02-27T04:33:23.427Z,10.25
2019-02-27T04:35:56.513Z,5.95
2019-02-27T04:38:28.785Z,10.63
2019-02-27T04:41:01.052Z,8.25
2019-02-27T04:43:33.308Z,9.13
2019-02-27T04:46:05.563Z,10.05
2019-02-27T04:48:37.800Z,4.72
2019-02-27T04:51:10.050Z,6.90
2019-02-27T04:53:42.300Z,10.30
2019-02-27T04:56:14.579Z,12.35
2019-02-27T04:58:46.800Z,7.45
2019-02-27T05:01:19.023Z,11.05
2019-02-27T05:03:51.282Z,9.50
2019-02-27T05:06:23.563Z,6.65
2019-02-27T05:08:59.763Z,6.28
2019-02-27T05:11:29.780Z,6.33
2019-02-27T05:14:02.028Z,7.25
2019-02-27T05:16:34.277Z,10.45
2019-02-27T05:19:06.522Z,10.38
2019-02-27T05:21:38.783Z,9.85
2019-02-27T05:24:11.017Z,8.03
2019-02-27T05:26:43.266Z,10.32
2019-02-27T05:29:15.906Z,6.58
2019-02-27T05:31:50.154Z,9.88
2019-02-27T05:34:22.118Z,7.92
2019-02-27T05:36:54.397Z,14.23
2019-02-27T05:39:26.659Z,11.97
2019-02-27T05:42:00.862Z,7.58
2019-02-27T05:44:32.988Z,8.63
2019-02-27T05:47:05.231Z,7.20
2019-02-27T05:49:37.494Z,10.03
2019-02-27T05:52:11.883Z,12.90
2019-02-27T05:54:43.717Z,10.23
2019-02-27T05:57:15.979Z,11.18
2019-02-27T05:59:48.230Z,10.60
2019-02-27T06:02:20.594Z,15.00
2019-02-27T06:04:52.824Z,8.60
2019-02-27T06:07:25.082Z,8.68
2019-02-27T06:09:57.367Z,12.03
2019-02-27T06:12:29.663Z,8.13
2019-02-27T06:15:02.273Z,11.83
2019-02-27T06:17:43.126Z,11.38
2019-02-27T06:20:08.648Z,12.13
2019-02-27T06:22:40.909Z,10.82
2019-02-27T06:25:14.251Z,8.90
2019-02-27T06:27:46.498Z,15.30
2019-02-27T06:30:20.290Z,9.08
2019-02-27T06:32:52.610Z,16.45
2019-02-27T06:35:24.835Z,11.25
2019-02-27T06:37:57.082Z,10.93
2019-02-27T06:40:29.479Z,10.88
2019-02-27T06:43:01.742Z,10.28
2019-02-27T06:45:33.969Z,12.73
2019-02-27T06:48:09.444Z,9.10
2019-02-27T06:50:40.168Z,10.85
2019-02-27T06:53:15.580Z,10.20
2019-02-27T06:55:46.384Z,13.75
2019-02-27T06:58:18.639Z,10.90
2019-02-27T07:00:50.883Z,10.33
2019-02-27T07:03:23.165Z,9.65
2019-02-27T07:05:55.389Z,9.85
2019-02-27T07:08:27.681Z,5.97
2019-02-27T07:11:10.318Z,11.03
2019-02-27T07:13:33.963Z,10.50
2019-02-27T07:16:06.240Z,9.15
2019-02-27T07:18:41.503Z,11.30
2019-02-27T07:21:12.488Z,11.40
2019-02-27T07:23:44.823Z,9.20
2019-02-27T07:26:17.071Z,14.85
2019-02-27T07:28:49.314Z,15.40
2019-02-27T07:31:23.306Z,8.65
2019-02-27T07:33:55.679Z,10.23
2019-02-27T07:36:27.913Z,9.15
2019-02-27T07:39:00.164Z,8.63
2019-02-27T07:41:32.425Z,11.40
2019-02-27T07:44:04.703Z,14.65
2019-02-27T07:46:37.091Z,12.53
2019-02-27T07:49:09.332Z,9.10
2019-02-27T07:51:41.564Z,8.75
2019-02-27T07:54:13.819Z,8.73
2019-02-27T07:56:46.062Z,7.35
2019-02-27T07:59:18.619Z,7.78
2019-02-27T08:01:50.941Z,10.98
2019-02-27T08:04:23.213Z,9.33
2019-02-27T08:06:55.481Z,13.33
2019-02-27T08:09:29.956Z,10.53
2019-02-27T08:12:01.703Z,7.62
2019-02-27T08:14:36.777Z,10.80
2019-02-27T08:17:17.372Z,16.55
2019-02-27T08:19:42.851Z,13.22
2019-02-27T08:22:16.100Z,13.70
2019-02-27T08:24:48.357Z,11.23
2019-02-27T08:27:20.588Z,16.42
2019-02-27T08:29:52.856Z,8.85
2019-02-27T08:32:26.023Z,10.03
2019-02-27T08:34:58.295Z,13.75
2019-02-27T08:37:30.543Z,14.30
2019-02-27T08:40:03.080Z,9.80
2019-02-27T08:42:36.983Z,12.70
2019-02-27T08:45:21.137Z,12.80
2019-02-27T08:47:55.579Z,12.37
2019-02-27T08:50:29.166Z,13.58
2019-02-27T08:53:01.388Z,8.80
2019-02-27T08:55:33.678Z,12.53
2019-02-27T08:58:07.253Z,10.95
2019-02-27T09:00:39.669Z,8.73
2019-02-27T09:03:20.041Z,12.65
2019-02-27T09:05:45.949Z,7.95
2019-02-27T09:08:18.195Z,10.55
2019-02-27T09:10:50.453Z,11.10
2019-02-27T09:13:22.690Z,10.68
2019-02-27T09:15:54.935Z,16.17
2019-02-27T09:18:27.173Z,11.65
2019-02-27T09:20:59.424Z,15.50
2019-02-27T09:23:31.684Z,8.40
2019-02-27T09:26:03.936Z,10.38
2019-02-27T09:28:36.160Z,8.75
2019-02-27T09:31:08.408Z,16.10
2019-02-27T09:33:40.641Z,15.45
2019-02-27T09:36:12.908Z,14.28
2019-02-27T09:38:45.289Z,14.23
2019-02-27T09:41:17.568Z,13.62
2019-02-27T09:43:49.816Z,14.50
2019-02-27T09:46:22.083Z,12.68
2019-02-27T09:48:55.821Z,12.90
2019-02-27T09:51:28.109Z,11.15
2019-02-27T09:54:00.340Z,13.20
2019-02-27T09:56:32.859Z,13.98
2019-02-27T09:59:05.124Z,13.90
2019-02-27T10:01:37.370Z,10.23
2019-02-27T10:04:09.735Z,14.73
2019-02-27T10:06:42.819Z,11.25
2019-02-27T10:09:16.033Z,16.93
2019-02-27T10:11:48.279Z,15.78
2019-02-27T10:14:20.559Z,12.75
2019-02-27T10:16:52.869Z,16.82
2019-02-27T10:19:26.889Z,13.72
2019-02-27T10:21:59.999Z,14.85
2019-02-27T10:24:32.323Z,14.45
2019-02-27T10:27:04.594Z,13.43
2019-02-27T10:29:37.312Z,11.20
2019-02-27T10:32:09.545Z,14.33
2019-02-27T10:34:41.794Z,11.90
2019-02-27T10:37:17.155Z,15.38
2019-02-27T10:39:48.025Z,15.83
2019-02-27T10:42:20.296Z,14.33
2019-02-27T10:44:52.551Z,12.43
2019-02-27T10:47:24.800Z,16.93
2019-02-27T10:50:01.880Z,16.17
2019-02-27T10:52:31.011Z,17.07
2019-02-27T10:55:03.633Z,16.93
2019-02-27T10:57:38.368Z,24.07
2019-02-27T11:00:25.173Z,11.63
2019-02-27T11:02:58.342Z,14.87
2019-02-27T11:05:31.555Z,17.48
2019-02-27T11:08:03.848Z,16.50
2019-02-27T11:10:36.142Z,13.20
2019-02-27T11:13:08.414Z,17.00
2019-02-27T11:15:41.389Z,16.77
2019-02-27T11:18:14.876Z,16.60
2019-02-27T11:20:47.144Z,18.98
2019-02-27T11:23:19.409Z,15.30
2019-02-27T11:25:56.516Z,13.68
2019-02-27T11:28:25.600Z,13.90
2019-02-27T11:30:57.895Z,14.45
2019-02-27T11:33:32.908Z,13.65
2019-02-27T11:36:05.751Z,13.20
2019-02-27T11:38:38.116Z,14.30
2019-02-27T11:41:14.950Z,16.37
2019-02-27T11:43:44.538Z,22.13
2019-02-27T11:46:16.790Z,13.15
2019-02-27T11:48:49.036Z,14.00
2019-02-27T11:51:22.092Z,15.50
2019-02-27T11:53:54.347Z,15.45
2019-02-27T11:56:26.603Z,13.75
2019-02-27T11:58:58.935Z,14.90
2019-02-27T12:01:32.192Z,18.23
2019-02-27T12:04:04.541Z,15.75
2019-02-27T12:06:41.358Z,18.42
2019-02-27T12:09:10.766Z,8.05
2019-02-27T12:11:48.448Z,13.58
2019-02-27T12:14:18.909Z,9.05
2019-02-27T12:16:51.680Z,6.83
2019-02-27T12:19:24.676Z,7.40
2019-02-27T12:21:59.301Z,8.98
2019-02-27T12:24:30.884Z,8.55
2019-02-27T12:27:03.204Z,8.83
2019-02-27T12:29:35.467Z,7.35
2019-02-27T12:32:07.722Z,9.35
2019-02-27T12:34:39.959Z,6.87
2019-02-27T12:37:19.218Z,9.53
2019-02-27T12:39:47.259Z,6.47
2019-02-27T12:42:20.150Z,5.95
2019-02-27T12:44:54.615Z,7.12
2019-02-27T12:47:26.394Z,5.10
2019-02-27T12:49:58.647Z,8.20
2019-02-27T12:52:30.909Z,3.60
2019-02-27T12:55:03.324Z,5.87
2019-02-27T12:57:35.569Z,9.93
2019-02-27T13:00:12.282Z,10.65
2019-02-27T13:02:44.790Z,7.45
2019-02-27T13:05:17.962Z,5.60
2019-02-27T13:07:50.201Z,7.75
2019-02-27T13:10:26.660Z,3.65
2019-02-27T13:12:58.905Z,4.75
2019-02-27T13:15:31.170Z,7.60
2019-02-27T13:18:03.396Z,6.75
2019-02-27T13:20:35.715Z,7.33
2019-02-27T13:23:08.208Z,11.55
2019-02-27T13:25:40.456Z,7.33
2019-02-27T13:28:14.596Z,4.72
2019-02-27T13:30:46.669Z,5.60
2019-02-27T13:33:18.980Z,8.85
2019-02-27T13:35:51.253Z,6.12
2019-02-27T13:38:23.484Z,5.62
2019-02-27T13:40:56.032Z,4.17
2019-02-27T13:43:28.323Z,6.50
2019-02-27T13:46:00.560Z,6.50
2019-02-27T13:48:32.832Z,8.30
2019-02-27T13:51:05.191Z,4.03
2019-02-27T13:53:37.616Z,11.70
2019-02-27T13:56:09.911Z,4.25
2019-02-27T13:58:42.208Z,8.23
2019-02-27T14:01:14.483Z,5.85
2019-02-27T14:03:48.366Z,10.38
2019-02-27T14:06:20.703Z,6.45
2019-02-27T14:08:52.937Z,6.00
2019-02-27T14:11:25.851Z,7.75
2019-02-27T14:13:58.159Z,6.15
2019-02-27T14:16:34.561Z,5.67
2019-02-27T14:19:04.524Z,4.55
2019-02-27T14:21:36.769Z,3.87
2019-02-27T14:24:09.005Z,5.55
2019-02-27T14:26:41.576Z,11.22
2019-02-27T14:29:14.495Z,8.33
2019-02-27T14:31:46.797Z,4.83
2019-02-27T14:34:19.124Z,6.45
2019-02-27T14:36:51.382Z,5.90
2019-02-27T14:39:23.638Z,3.40
2019-02-27T14:41:55.890Z,5.17
2019-02-27T14:44:31.196Z,5.03
2019-02-27T14:47:02.095Z,8.30
2019-02-27T14:49:34.321Z,3.33
2019-02-27T14:52:06.583Z,4.53
2019-02-27T14:54:38.802Z,5.80
2019-02-27T14:57:12.913Z,6.70
2019-02-27T14:59:44.988Z,4.10
2019-02-27T15:02:21.853Z,4.72
2019-02-27T15:04:51.217Z,8.43
2019-02-27T15:07:23.449Z,7.62
2019-02-27T15:09:56.996Z,3.12
2019-02-27T15:12:29.420Z,6.95
2019-02-27T15:15:01.667Z,7.20
2019-02-27T15:17:33.981Z,6.62
2019-02-27T15:20:07.764Z,4.25
2019-02-27T15:22:40.035Z,5.80
2019-02-27T15:25:13.336Z,4.72
2019-02-27T15:27:45.608Z,5.17
2019-02-27T15:30:21.527Z,5.12
2019-02-27T15:32:53.771Z,7.28
2019-02-27T15:35:26.020Z,9.08
2019-02-27T15:37:58.347Z,6.40
2019-02-27T15:40:30.651Z,5.97
2019-02-27T15:43:10.873Z,4.45
2019-02-27T15:45:36.868Z,9.65
2019-02-27T15:48:09.122Z,4.80
2019-02-27T15:50:41.352Z,7.90
2019-02-27T15:53:14.969Z,10.25
2019-02-27T15:55:47.614Z,6.85
2019-02-27T15:58:19.868Z,6.92
2019-02-27T16:00:52.566Z,4.45
2019-02-27T16:03:25.640Z,10.18
2019-02-27T16:05:57.941Z,10.15
2019-02-27T16:08:30.271Z,15.15
2019-02-27T16:11:02.555Z,9.08
2019-02-27T16:13:35.410Z,7.03
2019-02-27T16:16:07.943Z,6.47
2019-02-27T16:18:40.192Z,9.03
2019-02-27T16:21:12.467Z,7.90
2019-02-27T16:23:44.721Z,7.35
2019-02-27T16:26:16.940Z,5.87
2019-02-27T16:28:49.635Z,4.67
2019-02-27T16:31:21.945Z,7.30
2019-02-27T16:33:55.591Z,4.90
2019-02-27T16:36:36.031Z,12.78
2019-02-27T16:39:06.938Z,9.48
2019-02-27T16:41:36.090Z,5.17
2019-02-27T16:44:08.349Z,6.28
2019-02-27T16:46:44.564Z,5.75
2019-02-27T16:49:14.604Z,5.03
2019-02-27T16:51:46.847Z,6.12
2019-02-27T16:54:20.137Z,3.55
2019-02-27T16:56:52.366Z,7.37
2019-02-27T16:59:24.636Z,2.02
2019-02-27T17:01:56.896Z,12.05
2019-02-27T17:04:31.017Z,5.03
2019-02-27T17:07:03.124Z,8.23
2019-02-27T17:09:35.644Z,4.42
2019-02-27T17:12:08.059Z,4.35
2019-02-27T17:14:40.309Z,3.85
2019-02-27T17:17:12.538Z,4.95
2019-02-27T17:19:44.772Z,3.77
2019-02-27T17:22:17.020Z,4.17
2019-02-27T17:24:49.280Z,5.05
2019-02-27T17:27:21.542Z,3.42
2019-02-27T17:29:53.802Z,6.72
2019-02-27T17:32:27.488Z,4.87
2019-02-27T17:35:00.057Z,9.93
2019-02-27T17:37:32.391Z,4.92
2019-02-27T17:40:06.477Z,7.30
2019-02-27T17:42:38.709Z,6.67
2019-02-27T17:45:18.016Z,6.00
2019-02-27T17:47:50.329Z,14.10
2019-02-27T17:50:22.589Z,4.67
2019-02-27T17:52:54.825Z,6.47
2019-02-27T17:55:27.080Z,5.12
2019-02-27T17:57:59.335Z,6.17
2019-02-27T18:00:49.958Z,6.47
2019-02-27T18:03:19.149Z,8.08
2019-02-27T18:05:51.400Z,5.22
2019-02-27T18:08:23.659Z,3.47
2019-02-27T18:10:55.904Z,10.25
2019-02-27T18:13:28.134Z,6.72
2019-02-27T18:16:00.389Z,5.28
2019-02-27T18:18:32.625Z,6.58
2019-02-27T18:21:04.956Z,7.60
2019-02-27T18:23:37.176Z,5.28
2019-02-27T18:26:12.200Z,8.80
2019-02-27T18:28:43.413Z,5.58
2019-02-27T18:31:15.684Z,6.60
2019-02-27T18:33:50.174Z,10.08
2019-02-27T18:36:21.921Z,6.83
2019-02-27T18:38:54.224Z,11.73
2019-02-27T18:41:26.481Z,9.13
2019-02-27T18:44:04.169Z,8.25
2019-02-27T18:46:32.702Z,3.90
2019-02-27T18:49:04.951Z,9.53
2019-02-27T18:51:37.218Z,6.00
2019-02-27T18:54:09.446Z,6.42
2019-02-27T18:56:41.793Z,7.25
2019-02-27T18:59:14.063Z,4.80
2019-02-27T19:01:46.345Z,3.37
2019-02-27T19:04:18.568Z,13.48
2019-02-27T19:06:50.821Z,8.33
2019-02-27T19:09:23.055Z,6.12
2019-02-27T19:11:55.300Z,5.92
2019-02-27T19:14:27.560Z,5.83
2019-02-27T19:16:59.860Z,4.87
2019-02-27T19:19:32.106Z,8.03
2019-02-27T19:22:08.042Z,6.72
2019-02-27T19:24:39.316Z,4.00
2019-02-27T19:27:11.591Z,13.95
2019-02-27T19:29:43.839Z,6.20
2019-02-27T19:32:16.080Z,6.20
2019-02-27T19:34:48.315Z,5.87
2019-02-27T19:37:20.620Z,5.40
2019-02-27T19:39:53.365Z,4.12
2019-02-27T19:42:26.828Z,5.67
2019-02-27T19:45:03.551Z,5.75
2019-02-27T19:47:33.038Z,4.37
2019-02-27T19:50:08.524Z,5.25
2019-02-27T19:52:40.814Z,4.40
2019-02-27T19:55:13.316Z,4.83
2019-02-27T19:57:45.564Z,10.55
2019-02-27T20:00:19.191Z,10.78
2019-02-27T20:02:55.204Z,4.80
2019-02-27T20:05:25.465Z,6.65
2019-02-27T20:07:57.798Z,10.20
2019-02-27T20:10:33.148Z,10.53
2019-02-27T20:13:04.508Z,11.28
2019-02-27T20:15:36.958Z,6.90
2019-02-27T20:18:09.525Z,14.30
2019-02-27T20:20:41.927Z,7.58
2019-02-27T20:23:14.166Z,8.98
2019-02-27T20:25:46.500Z,9.90
2019-02-27T20:28:18.746Z,10.05
2019-02-27T20:30:51.075Z,9.33
2019-02-27T20:33:23.482Z,8.25
2019-02-27T20:35:56.676Z,12.75
2019-02-27T20:38:29.169Z,10.45
2019-02-27T20:41:01.493Z,17.37
2019-02-27T20:43:33.770Z,7.40
2019-02-27T20:46:06.107Z,10.10
2019-02-27T20:48:39.675Z,10.48
2019-02-27T20:51:12.072Z,15.98
2019-02-27T20:53:44.526Z,10.80
2019-02-27T20:56:16.744Z,9.20
2019-02-27T20:58:51.991Z,8.88
2019-02-27T21:01:23.017Z,8.50
2019-02-27T21:03:55.250Z,6.95
2019-02-27T21:06:27.515Z,7.35
2019-02-27T21:08:59.786Z,11.18
2019-02-27T21:11:32.088Z,11.53
2019-02-27T21:14:04.575Z,9.75
2019-02-27T21:16:40.176Z,11.30
2019-02-27T21:19:12.420Z,9.23
2019-02-27T21:21:44.744Z,6.37
2019-02-27T21:24:16.985Z,7.42
2019-02-27T21:26:49.226Z,13.35
2019-02-27T21:29:21.680Z,7.50
2019-02-27T21:31:53.948Z,8.25
2019-02-27T21:34:26.200Z,10.03
2019-02-27T21:36:58.468Z,9.15
2019-02-27T21:39:30.703Z,9.20
2019-02-27T21:42:02.955Z,9.48
2019-02-27T21:44:35.203Z,12.73
2019-02-27T21:47:07.467Z,13.65
2019-02-27T21:49:39.693Z,10.50
2019-02-27T21:52:11.991Z,10.95
2019-02-27T21:54:44.221Z,7.87
2019-02-27T21:57:17.424Z,7.70
2019-02-27T21:59:49.658Z,8.30
2019-02-27T22:02:22.007Z,7.53
2019-02-27T22:04:54.253Z,9.60
2019-02-27T22:07:26.546Z,12.63
2019-02-27T22:09:58.824Z,7.15
2019-02-27T22:12:32.438Z,10.38
2019-02-27T22:15:06.433Z,9.05
2019-02-27T22:17:38.908Z,7.65
2019-02-27T22:20:12.024Z,12.28
2019-02-27T22:22:44.417Z,10.30
2019-02-27T22:25:16.642Z,9.50
2019-02-27T22:27:49.158Z,8.30
2019-02-27T22:30:21.981Z,9.70
2019-02-27T22:32:54.226Z,6.20
2019-02-27T22:35:26.455Z,10.08
2019-02-27T22:37:58.711Z,9.18
2019-02-27T22:40:30.944Z,10.10
2019-02-27T22:43:03.226Z,9.53
2019-02-27T22:45:39.183Z,7.70
2019-02-27T22:48:09.509Z,9.73
2019-02-27T22:50:41.905Z,9.98
2019-02-27T22:53:14.222Z,11.20
2019-02-27T22:55:46.454Z,8.15
2019-02-27T22:58:19.693Z,11.00
2019-02-27T23:00:56.505Z,11.83
2019-02-27T23:03:30.491Z,8.85
2019-02-27T23:06:03.503Z,8.88
2019-02-27T23:08:35.774Z,11.63
2019-02-27T23:11:08.284Z,11.88
2019-02-27T23:13:44.130Z,9.08
2019-02-27T23:16:15.948Z,14.07
2019-02-27T23:18:48.209Z,14.15
2019-02-27T23:21:20.481Z,11.25
2019-02-27T23:23:52.833Z,14.60
2019-02-27T23:26:25.070Z,19.98
2019-02-27T23:28:57.315Z,15.72
2019-02-27T23:31:29.593Z,14.03
2019-02-27T23:34:01.856Z,13.75
2019-02-27T23:36:34.106Z,12.07
2019-02-27T23:39:08.639Z,10.72
2019-02-27T23:41:40.807Z,13.80
2019-02-27T23:44:13.089Z,11.33
2019-02-27T23:46:49.549Z,12.45
2019-02-27T23:49:19.333Z,14.33
2019-02-27T23:51:51.613Z,14.98
2019-02-27T23:54:23.849Z,14.23
2019-02-27T23:56:56.101Z,19.23
2019-02-27T23:59:28.346Z,21.48
